Time;durP1;ratioP1;P1;durP2;ratioP2;P2;SDS_P1;SDS_P2;PMS_P1;PMS_P2;Temp;Humidity;BMP_temperature;BMP_pressure;BME280_temperature;BME280_humidity;BME280_pressure;Samples;Min_cycle;Max_cycle;Signal;HPM_P1;HPM_P2
2021/08/16 00:01:56;;;;;;;2.97;1.70;;;;;;;23.76;55.06;100903.25;5032684;28;20179;-75
2021/08/16 00:04:21;;;;;;;3.28;1.52;;;;;;;23.78;54.82;100902.31;5016096;28;20029;-75
2021/08/16 00:06:46;;;;;;;2.58;1.58;;;;;;;23.77;54.83;100911.16;5016015;28;20033;-75
2021/08/16 00:09:12;;;;;;;2.30;1.23;;;;;;;23.76;55.26;100906.78;5034111;28;20079;-75
2021/08/16 00:11:39;;;;;;;2.42;1.30;;;;;;;23.75;54.88;100902.44;5032692;28;20112;-74
2021/08/16 00:14:05;;;;;;;3.58;1.45;;;;;;;23.76;55.15;100896.22;5032615;28;20033;-75
2021/08/16 00:16:32;;;;;;;3.03;1.25;;;;;;;23.77;54.87;100900.59;5033495;28;20489;-75
2021/08/16 00:18:57;;;;;;;3.38;1.40;;;;;;;23.75;54.82;100894.50;5033581;28;20121;-75
2021/08/16 00:21:23;;;;;;;2.70;1.27;;;;;;;23.76;55.06;100901.50;5032271;28;20451;-75
2021/08/16 00:23:48;;;;;;;3.00;1.60;;;;;;;23.76;55.00;100892.69;5032282;28;20029;-75
2021/08/16 00:26:14;;;;;;;3.40;1.60;;;;;;;23.74;54.81;100886.63;5015852;28;20036;-75
2021/08/16 00:28:40;;;;;;;3.70;2.00;;;;;;;23.77;55.08;100883.88;5015909;28;20033;-73
2021/08/16 00:31:05;;;;;;;3.35;1.73;;;;;;;23.76;54.99;100882.13;5033451;28;20033;-73
2021/08/16 00:33:31;;;;;;;2.40;1.40;;;;;;;23.78;54.92;100880.34;5032253;28;20033;-73
2021/08/16 00:35:56;;;;;;;2.63;1.42;;;;;;;23.76;54.92;100871.56;5034217;28;20045;-73
2021/08/16 00:38:22;;;;;;;3.03;1.50;;;;;;;23.76;54.95;100871.56;5035927;28;20033;-75
2021/08/16 00:40:47;;;;;;;2.75;1.50;;;;;;;23.72;54.93;100860.25;5037061;28;20112;-73
2021/08/16 00:43:12;;;;;;;5.35;2.10;;;;;;;23.72;55.16;100864.66;5002642;28;20038;-73
2021/08/16 00:45:38;;;;;;;1.55;0.95;;;;;;;23.75;54.96;100873.38;5003236;28;20018;-73
2021/08/16 00:48:04;;;;;;;2.30;1.30;;;;;;;23.74;55.01;100869.00;5019653;28;20042;-74
2021/08/16 00:50:29;;;;;;;2.47;1.33;;;;;;;23.75;54.66;100873.38;5020209;28;20032;-73
2021/08/16 00:52:56;;;;;;;2.80;1.50;;;;;;;23.75;54.87;100873.38;5019505;28;20116;-73
2021/08/16 00:55:21;;;;;;;3.30;1.35;;;;;;;23.74;54.91;100869.00;5037300;28;20038;-74
2021/08/16 00:57:47;;;;;;;2.20;1.45;;;;;;;23.72;54.82;100862.91;5037913;28;20027;-74
2021/08/16 01:00:12;;;;;;;2.63;1.50;;;;;;;23.75;55.06;100864.59;5037186;28;20443;-74
2021/08/16 01:02:39;;;;;;;2.38;1.20;;;;;;;23.76;54.52;100869.81;5025110;28;20037;-73
2021/08/16 01:05:07;;;;;;;2.38;1.30;;;;;;;23.72;54.90;100860.25;5045139;28;20030;-73
2021/08/16 01:07:33;;;;;;;2.25;1.38;;;;;;;23.70;54.85;100864.69;5025056;28;20088;-73
2021/08/16 01:10:00;;;;;;;2.50;1.20;;;;;;;23.74;55.01;100868.13;5035637;28;20025;-77
2021/08/16 01:12:31;;;;;;;2.85;1.60;;;;;;;23.73;54.67;100871.69;5035227;28;20387;-74
2021/08/16 01:14:57;;;;;;;2.78;1.20;;;;;;;23.75;54.64;100876.03;5033135;28;20415;-73
2021/08/16 01:17:22;;;;;;;3.00;1.40;;;;;;;23.75;54.89;100880.44;5032627;28;20044;-73
2021/08/16 01:19:49;;;;;;;2.38;1.35;;;;;;;23.73;54.83;100875.19;5032754;28;20084;-73
2021/08/16 01:22:15;;;;;;;2.30;1.50;;;;;;;23.73;54.86;100867.28;5016958;28;20164;-73
2021/08/16 01:24:43;;;;;;;2.17;1.45;;;;;;;23.75;54.95;100876.03;5033772;28;20479;-73
2021/08/16 01:27:11;;;;;;;3.53;1.70;;;;;;;23.71;54.62;100866.44;5015904;28;20563;-74
2021/08/16 01:29:36;;;;;;;2.45;1.33;;;;;;;23.71;54.59;100869.09;5015823;28;20120;-73
2021/08/16 01:32:03;;;;;;;2.08;1.10;;;;;;;23.75;54.85;100873.38;5035186;28;20412;-73
2021/08/16 01:34:31;;;;;;;3.70;1.50;;;;;;;23.75;54.76;100876.03;5037023;28;20038;-73
2021/08/16 01:37:00;;;;;;;2.58;1.25;;;;;;;23.70;54.92;100869.97;5036554;28;20025;-73
2021/08/16 01:39:27;;;;;;;1.77;1.00;;;;;;;23.72;54.74;100870.81;5036677;28;20083;-73
2021/08/16 01:41:53;;;;;;;3.55;1.83;;;;;;;23.73;54.85;100864.63;5035713;28;20120;-73
2021/08/16 01:44:22;;;;;;;2.38;1.52;;;;;;;23.73;55.01;100861.13;5035397;28;20507;-74
2021/08/16 01:46:48;;;;;;;2.45;1.60;;;;;;;23.70;54.97;100867.34;5035762;28;20031;-75
2021/08/16 01:49:14;;;;;;;2.97;1.30;;;;;;;23.71;54.84;100866.44;5019937;28;20034;-75
2021/08/16 01:51:40;;;;;;;2.55;1.70;;;;;;;23.69;54.67;100868.25;5003763;28;20042;-74
2021/08/16 01:54:10;;;;;;;3.38;1.48;;;;;;;23.69;54.74;100868.25;5020317;28;20083;-73
2021/08/16 01:56:37;;;;;;;2.45;1.40;;;;;;;23.73;54.90;100863.75;5036371;28;20026;-75
2021/08/16 01:59:03;;;;;;;2.08;1.25;;;;;;;23.73;54.75;100867.28;5035424;28;20110;-73
2021/08/16 02:01:28;;;;;;;1.85;1.20;;;;;;;23.70;54.96;100864.69;5036049;28;20368;-73
2021/08/16 02:03:53;;;;;;;3.00;1.50;;;;;;;23.72;54.65;100865.53;5036131;28;20031;-73
2021/08/16 02:06:20;;;;;;;3.10;1.48;;;;;;;23.72;54.73;100854.09;5035819;28;20064;-73
2021/08/16 02:08:45;;;;;;;4.20;1.60;;;;;;;23.72;54.51;100862.03;5035584;28;20025;-73
2021/08/16 02:11:11;;;;;;;1.73;1.30;;;;;;;23.69;54.72;100857.69;5036171;28;20387;-73
2021/08/16 02:13:37;;;;;;;3.22;1.42;;;;;;;23.71;54.80;100858.53;5035621;28;20037;-73
2021/08/16 02:16:03;;;;;;;1.67;1.00;;;;;;;23.67;54.67;100856.00;5035791;28;20046;-73
2021/08/16 02:18:29;;;;;;;2.90;1.20;;;;;;;23.72;54.60;100859.38;5035498;28;20038;-73
2021/08/16 02:20:54;;;;;;;2.05;1.33;;;;;;;23.72;54.83;100862.91;5035688;28;20037;-73
2021/08/16 02:23:19;;;;;;;2.58;1.50;;;;;;;23.70;54.76;100855.91;5035184;28;20120;-73
2021/08/16 02:25:45;;;;;;;3.33;1.73;;;;;;;23.72;55.02;100865.53;5035070;28;20045;-73
2021/08/16 02:28:10;;;;;;;2.35;1.45;;;;;;;23.73;54.91;100855.84;5035571;28;20022;-73
2021/08/16 02:30:36;;;;;;;2.03;1.17;;;;;;;23.71;54.72;100866.44;5035692;28;20041;-73
2021/08/16 02:33:01;;;;;;;1.80;1.33;;;;;;;23.68;54.73;100861.22;5036591;28;20018;-73
2021/08/16 02:35:27;;;;;;;2.25;1.38;;;;;;;23.71;54.72;100861.16;5035112;28;20468;-74
2021/08/16 02:37:52;;;;;;;2.63;1.27;;;;;;;23.71;54.67;100863.81;5035918;28;20033;-74
2021/08/16 02:40:18;;;;;;;1.55;1.08;;;;;;;23.68;54.91;100853.31;5034535;28;20187;-75
2021/08/16 02:42:44;;;;;;;1.45;1.10;;;;;;;23.70;54.53;100862.06;5034904;28;20021;-75
2021/08/16 02:45:10;;;;;;;1.30;1.10;;;;;;;23.71;54.61;100857.66;5034245;28;20128;-75
2021/08/16 02:47:36;;;;;;;2.70;0.93;;;;;;;23.68;54.98;100852.44;5034068;28;20021;-75
2021/08/16 02:50:02;;;;;;;2.22;1.33;;;;;;;23.68;54.63;100853.31;5035649;28;20068;-75
2021/08/16 02:52:28;;;;;;;2.72;1.15;;;;;;;23.68;54.83;100852.44;5034037;28;20032;-75
2021/08/16 02:54:53;;;;;;;1.55;1.10;;;;;;;23.67;54.50;100851.56;5034125;28;20030;-75
2021/08/16 02:57:20;;;;;;;1.58;1.00;;;;;;;23.69;54.80;100849.75;5034059;28;20112;-74
2021/08/16 02:59:45;;;;;;;1.98;1.15;;;;;;;23.63;54.66;100838.53;5035218;28;20057;-75
2021/08/16 03:02:11;;;;;;;2.20;1.13;;;;;;;23.66;54.68;100839.28;5033908;28;20502;-75
2021/08/16 03:04:36;;;;;;;1.42;1.10;;;;;;;23.69;54.79;100847.13;5017513;28;20033;-75
2021/08/16 03:07:03;;;;;;;1.30;0.88;;;;;;;23.69;54.70;100844.47;5035097;28;20036;-75
2021/08/16 03:09:29;;;;;;;1.52;1.05;;;;;;;23.69;54.58;100840.97;5035115;28;20022;-72
2021/08/16 03:11:55;;;;;;;2.35;1.13;;;;;;;23.68;54.81;100842.75;5033755;28;20491;-73
2021/08/16 03:14:21;;;;;;;1.75;1.08;;;;;;;23.62;54.80;100831.50;5034828;28;20025;-72
2021/08/16 03:16:47;;;;;;;2.08;1.40;;;;;;;23.67;54.42;100835.72;5033567;28;20050;-73
2021/08/16 03:19:15;;;;;;;2.50;1.10;;;;;;;23.69;54.54;100830.41;5017182;28;20037;-72
2021/08/16 03:21:40;;;;;;;3.60;1.55;;;;;;;23.65;54.50;100832.25;5033545;28;20034;-72
2021/08/16 03:24:06;;;;;;;2.33;1.35;;;;;;;23.64;54.79;100833.16;5033476;28;20029;-72
2021/08/16 03:26:31;;;;;;;1.60;0.90;;;;;;;23.66;54.78;100838.41;5033368;28;20025;-72
2021/08/16 03:28:57;;;;;;;3.15;1.83;;;;;;;23.68;54.60;100837.47;5033276;28;20112;-72
2021/08/16 03:31:22;;;;;;;2.00;1.15;;;;;;;23.64;54.57;100822.59;5033330;28;20022;-72
2021/08/16 03:33:47;;;;;;;2.08;1.33;;;;;;;23.68;54.78;100834.84;5033329;28;20494;-72
2021/08/16 03:36:13;;;;;;;1.63;1.05;;;;;;;23.65;54.58;100828.75;5033117;28;20038;-72
2021/08/16 03:38:39;;;;;;;1.95;1.48;;;;;;;23.66;54.46;100834.00;5000710;28;20376;-72
2021/08/16 03:41:05;;;;;;;1.38;0.90;;;;;;;23.64;54.54;100822.59;5033224;28;20033;-72
2021/08/16 03:43:31;;;;;;;1.65;1.08;;;;;;;23.64;54.44;100817.31;5033115;28;20022;-72
2021/08/16 03:45:56;;;;;;;1.98;1.23;;;;;;;23.67;54.42;100814.63;5033108;28;20047;-72
2021/08/16 03:48:22;;;;;;;1.63;1.13;;;;;;;23.65;54.55;100812.91;5032867;28;20888;-72
2021/08/16 03:50:48;;;;;;;1.67;1.00;;;;;;;23.65;54.56;100812.91;5016517;28;20071;-72
2021/08/16 03:53:13;;;;;;;2.25;0.98;;;;;;;23.65;54.65;100820.84;5033018;28;20033;-72
2021/08/16 03:55:39;;;;;;;1.73;1.38;;;;;;;23.67;54.48;100833.09;5032853;28;20025;-72
2021/08/16 03:58:04;;;;;;;4.38;1.85;;;;;;;23.66;54.65;100844.56;5034136;28;20033;-73
2021/08/16 04:00:29;;;;;;;1.40;0.80;;;;;;;23.67;54.67;100837.50;5032918;28;20124;-72
2021/08/16 04:02:55;;;;;;;3.70;1.30;;;;;;;23.63;54.39;100828.78;5034229;28;20021;-73
2021/08/16 04:05:20;;;;;;;1.40;1.10;;;;;;;23.66;54.72;100844.56;5016390;28;20029;-72
2021/08/16 04:07:46;;;;;;;2.03;1.02;;;;;;;23.67;54.63;100846.28;5016157;28;20751;-72
2021/08/16 04:10:13;;;;;;;1.13;0.85;;;;;;;23.67;54.88;100840.16;5032696;28;20383;-72
2021/08/16 04:12:38;;;;;;;1.95;1.00;;;;;;;23.65;54.63;100840.19;5032601;28;20037;-72
2021/08/16 04:15:08;;;;;;;2.70;1.25;;;;;;;23.66;54.51;100838.41;5032251;28;20039;-72
2021/08/16 04:17:33;;;;;;;1.40;0.80;;;;;;;23.66;54.57;100841.06;5033582;28;20076;-72
2021/08/16 04:19:59;;;;;;;1.35;0.80;;;;;;;23.62;54.75;100826.22;5016191;28;20483;-72
2021/08/16 04:22:24;;;;;;;2.65;0.95;;;;;;;23.63;54.50;100836.72;5016259;28;20026;-72
2021/08/16 04:24:49;;;;;;;3.53;1.27;;;;;;;23.63;54.67;100839.34;5032422;28;20030;-72
2021/08/16 04:27:15;;;;;;;1.73;1.08;;;;;;;23.63;54.58;100839.34;5015991;28;20352;-72
2021/08/16 04:29:40;;;;;;;2.78;1.10;;;;;;;23.61;54.37;100841.19;5032736;28;20037;-72
2021/08/16 04:32:06;;;;;;;1.80;1.23;;;;;;;23.64;54.59;100841.09;5032462;28;20029;-73
2021/08/16 04:34:31;;;;;;;1.73;0.90;;;;;;;23.61;54.67;100841.19;5016105;28;20067;-72
2021/08/16 04:36:57;;;;;;;1.60;1.00;;;;;;;23.61;54.28;100835.91;5032320;28;20028;-72
2021/08/16 04:39:22;;;;;;;1.05;0.75;;;;;;;23.65;54.76;100842.81;5015764;28;20064;-72
2021/08/16 04:41:50;;;;;;;1.42;0.85;;;;;;;23.63;54.91;100842.00;5015720;28;20120;-72
2021/08/16 04:44:15;;;;;;;1.45;0.80;;;;;;;23.62;54.14;100839.41;5032160;28;20168;-73
2021/08/16 04:46:41;;;;;;;2.00;1.63;;;;;;;23.64;54.60;100840.22;5032266;28;20476;-72
2021/08/16 04:49:06;;;;;;;1.73;1.10;;;;;;;23.61;54.66;100835.91;5033586;28;20435;-72
2021/08/16 04:51:31;;;;;;;2.15;1.00;;;;;;;23.62;54.67;100848.22;5015753;28;20381;-74
2021/08/16 04:53:57;;;;;;;1.42;0.93;;;;;;;23.62;54.58;100842.94;5033408;28;20029;-74
2021/08/16 04:56:22;;;;;;;1.00;0.82;;;;;;;23.61;54.54;100842.97;5015597;28;20072;-72
2021/08/16 04:58:47;;;;;;;1.10;0.80;;;;;;;23.62;54.26;100837.66;5032144;28;20045;-72
2021/08/16 05:01:13;;;;;;;1.40;0.90;;;;;;;23.60;54.71;100831.53;5031975;28;20033;-74
2021/08/16 05:03:39;;;;;;;1.67;0.97;;;;;;;23.63;54.64;100831.44;5032131;28;20116;-74
2021/08/16 05:06:06;;;;;;;2.55;0.95;;;;;;;23.62;54.72;100827.09;5033326;28;20029;-74
2021/08/16 05:08:33;;;;;;;2.33;1.02;;;;;;;23.60;54.48;100839.47;5019537;28;20022;-74
2021/08/16 05:10:58;;;;;;;1.05;0.90;;;;;;;23.63;54.66;100854.34;5019492;28;20087;-74
2021/08/16 05:13:24;;;;;;;1.00;0.70;;;;;;;23.63;54.70;100846.44;5037108;28;20030;-74
2021/08/16 05:15:49;;;;;;;1.25;0.82;;;;;;;23.62;54.68;100852.63;5036789;28;20086;-74
2021/08/16 05:18:15;;;;;;;1.33;1.10;;;;;;;23.59;54.61;100845.66;5035791;28;20542;-74
2021/08/16 05:20:40;;;;;;;2.58;1.23;;;;;;;23.59;54.61;100852.69;5035881;28;20121;-74
2021/08/16 05:23:06;;;;;;;1.63;0.90;;;;;;;23.60;54.55;100851.78;5037064;28;20029;-74
2021/08/16 05:25:32;;;;;;;1.65;0.98;;;;;;;23.60;54.59;100854.44;5019247;28;20080;-75
2021/08/16 05:27:58;;;;;;;1.40;0.70;;;;;;;23.60;54.55;100867.63;5037122;28;20064;-75
2021/08/16 05:30:23;;;;;;;1.33;0.70;;;;;;;23.63;54.66;100876.31;5035671;28;20021;-75
2021/08/16 05:32:49;;;;;;;1.30;0.88;;;;;;;23.58;54.55;100867.66;5019267;28;20053;-75
2021/08/16 05:35:14;;;;;;;1.70;0.98;;;;;;;23.62;54.46;100873.75;5036751;28;20033;-75
2021/08/16 05:37:40;;;;;;;1.05;0.68;;;;;;;23.64;54.41;100882.47;5035419;28;20480;-75
2021/08/16 05:40:06;;;;;;;1.40;0.57;;;;;;;23.64;54.45;100885.09;5018931;28;20056;-76
2021/08/16 05:42:32;;;;;;;2.42;0.95;;;;;;;23.62;54.47;100882.53;5035327;28;20040;-76
2021/08/16 05:44:57;;;;;;;1.85;0.93;;;;;;;23.62;54.45;100892.22;5035316;28;20098;-76
2021/08/16 05:47:23;;;;;;;1.50;0.70;;;;;;;23.59;54.66;100882.59;5035246;28;20026;-76
2021/08/16 05:49:48;;;;;;;1.52;0.70;;;;;;;23.63;54.40;100893.97;5036405;28;20542;-76
2021/08/16 05:52:14;;;;;;;1.48;1.00;;;;;;;23.63;54.54;100899.25;5035232;28;20037;-75
2021/08/16 05:54:39;;;;;;;1.40;0.80;;;;;;;23.62;54.28;100898.38;5035055;28;20065;-75
2021/08/16 05:57:04;;;;;;;2.38;1.02;;;;;;;23.62;54.41;100901.00;5018400;28;20494;-75
2021/08/16 05:59:30;;;;;;;2.72;1.13;;;;;;;23.58;54.26;100894.06;5018725;28;20033;-76
2021/08/16 06:01:55;;;;;;;1.65;1.20;;;;;;;23.62;54.51;100901.00;5035055;28;20037;-76
2021/08/16 06:04:20;;;;;;;1.38;0.80;;;;;;;23.63;54.67;100901.88;5035090;28;20033;-76
2021/08/16 06:06:46;;;;;;;2.83;1.02;;;;;;;23.58;54.44;100901.97;5034806;28;20111;-76
2021/08/16 06:09:11;;;;;;;1.83;1.13;;;;;;;23.62;54.45;100902.78;5002005;28;20498;-76
2021/08/16 06:11:36;;;;;;;1.35;1.00;;;;;;;23.60;54.40;100904.59;5018354;28;20041;-76
2021/08/16 06:14:02;;;;;;;1.42;1.00;;;;;;;23.61;54.66;100907.19;5018366;28;20044;-76
2021/08/16 06:16:27;;;;;;;1.58;1.08;;;;;;;23.58;54.24;100904.63;5018090;28;20128;-76
2021/08/16 06:18:53;;;;;;;1.50;1.10;;;;;;;23.52;54.40;100899.47;5017310;28;20119;-76
2021/08/16 06:21:19;;;;;;;0.85;0.60;;;;;;;23.56;54.44;100902.91;5034701;28;20112;-76
2021/08/16 06:23:45;;;;;;;1.58;0.77;;;;;;;23.61;54.25;100908.97;5034511;28;20037;-74
2021/08/16 06:26:10;;;;;;;2.33;0.98;;;;;;;23.61;54.28;100915.13;5035816;28;20025;-74
2021/08/16 06:28:35;;;;;;;1.60;0.90;;;;;;;23.60;54.61;100920.44;5035773;28;20439;-74
2021/08/16 06:31:02;;;;;;;1.45;0.80;;;;;;;23.59;54.34;100916.91;5035817;28;20096;-74
2021/08/16 06:33:27;;;;;;;1.02;0.73;;;;;;;23.58;54.33;100917.81;5035893;28;20029;-74
2021/08/16 06:35:54;;;;;;;1.88;0.80;;;;;;;23.58;54.35;100916.94;5035597;28;20502;-74
2021/08/16 06:38:25;;;;;;;1.63;1.10;;;;;;;23.60;54.24;100928.34;5034390;28;20025;-74
2021/08/16 06:40:55;;;;;;;1.40;0.82;;;;;;;23.60;54.14;100929.22;5035731;28;20051;-74
2021/08/16 06:43:22;;;;;;;1.20;0.90;;;;;;;23.56;54.21;100921.41;5034380;28;20498;-74
2021/08/16 06:45:48;;;;;;;1.20;0.80;;;;;;;23.57;54.39;100928.41;5034630;28;20029;-74
2021/08/16 06:48:14;;;;;;;1.27;0.70;;;;;;;23.60;54.28;100941.56;5034514;28;20037;-74
2021/08/16 06:50:40;;;;;;;1.15;0.80;;;;;;;23.57;54.36;100936.34;5035616;28;20029;-74
2021/08/16 06:53:06;;;;;;;1.08;0.75;;;;;;;23.60;54.19;100949.47;5034113;28;20036;-74
2021/08/16 06:55:32;;;;;;;1.77;0.90;;;;;;;23.59;54.35;100951.25;5022936;28;20025;-74
2021/08/16 06:57:57;;;;;;;2.05;1.48;;;;;;;23.58;54.31;100953.91;5041375;28;20040;-75
2021/08/16 07:00:23;;;;;;;3.25;1.08;;;;;;;23.61;54.35;100960.00;5046235;28;20044;-74
2021/08/16 07:02:48;;;;;;;1.08;0.82;;;;;;;23.60;54.17;100967.94;5043936;28;20120;-74
2021/08/16 07:05:14;;;;;;;1.40;0.90;;;;;;;23.56;54.20;100959.22;5037008;28;20040;-74
2021/08/16 07:07:39;;;;;;;1.60;1.00;;;;;;;23.55;54.19;100956.63;5005235;28;20017;-74
2021/08/16 07:10:05;;;;;;;1.27;0.88;;;;;;;23.57;54.02;100960.09;5036436;28;20033;-74
2021/08/16 07:12:31;;;;;;;1.08;0.80;;;;;;;23.56;54.33;100964.50;5035790;28;20398;-74
2021/08/16 07:14:56;;;;;;;1.85;1.00;;;;;;;23.58;53.82;100970.63;5033833;28;20476;-74
2021/08/16 07:17:22;;;;;;;1.30;0.70;;;;;;;23.60;53.92;100973.22;5034524;28;20046;-74
2021/08/16 07:19:47;;;;;;;2.05;0.82;;;;;;;23.59;53.84;100974.13;5034762;28;20087;-74
2021/08/16 07:22:13;;;;;;;1.42;0.80;;;;;;;23.60;54.08;100976.72;5017004;28;20054;-74
2021/08/16 07:24:38;;;;;;;0.80;0.60;;;;;;;23.60;53.85;100976.72;5035115;28;20093;-75
2021/08/16 07:27:04;;;;;;;1.58;0.80;;;;;;;23.58;53.76;100975.03;5033993;28;20033;-75
2021/08/16 07:29:30;;;;;;;1.92;1.10;;;;;;;23.60;53.96;100981.16;5034483;28;20029;-76
2021/08/16 07:31:56;;;;;;;1.27;0.70;;;;;;;23.57;54.02;100970.66;5033449;28;20148;-76
2021/08/16 07:34:22;;;;;;;1.15;0.70;;;;;;;23.60;53.83;100976.72;5033131;28;20528;-75
2021/08/16 07:36:48;;;;;;;1.15;0.88;;;;;;;23.61;54.04;100983.75;5033150;28;20083;-75
2021/08/16 07:39:14;;;;;;;1.40;1.13;;;;;;;23.61;54.04;100981.13;5034570;28;20100;-75
2021/08/16 07:41:40;;;;;;;1.52;0.80;;;;;;;23.64;53.91;100986.28;5034412;28;20029;-75
2021/08/16 07:44:06;;;;;;;2.15;0.85;;;;;;;23.61;53.53;100991.69;5034273;28;20483;-74
2021/08/16 07:46:31;;;;;;;2.10;0.80;;;;;;;23.60;53.91;100992.56;5033258;28;20030;-75
2021/08/16 07:48:56;;;;;;;1.80;1.05;;;;;;;23.63;53.91;101003.03;5033099;28;20467;-74
2021/08/16 07:51:22;;;;;;;0.88;0.65;;;;;;;23.63;53.77;101013.59;5033060;28;20116;-74
2021/08/16 07:53:47;;;;;;;2.35;1.00;;;;;;;23.61;53.91;101011.94;5033199;28;20076;-74
2021/08/16 07:56:13;;;;;;;1.08;0.80;;;;;;;23.59;53.66;101014.59;5032759;28;20108;-74
2021/08/16 07:58:38;;;;;;;1.02;0.82;;;;;;;23.55;54.09;101009.41;5033217;28;20033;-74
2021/08/16 08:01:03;;;;;;;2.28;0.80;;;;;;;23.61;54.36;101025.13;5032902;28;20379;-74
2021/08/16 08:03:32;;;;;;;1.27;0.80;;;;;;;23.62;53.64;101027.72;5016345;28;20100;-74
2021/08/16 08:05:57;;;;;;;2.15;1.08;;;;;;;23.60;53.80;101036.59;5034124;28;20021;-74
2021/08/16 08:08:23;;;;;;;1.40;0.90;;;;;;;23.60;53.78;101032.19;5033895;28;20046;-74
2021/08/16 08:10:49;;;;;;;1.23;0.90;;;;;;;23.61;53.85;101041.84;5032845;28;20494;-74
2021/08/16 08:13:14;;;;;;;1.63;0.90;;;;;;;23.57;53.93;101044.56;5016175;28;20029;-74
2021/08/16 08:15:40;;;;;;;1.95;0.95;;;;;;;23.58;53.80;101044.53;5032617;28;20046;-74
2021/08/16 08:18:06;;;;;;;1.13;0.80;;;;;;;23.59;53.88;101048.06;5032465;28;20045;-74
2021/08/16 08:20:31;;;;;;;1.42;1.00;;;;;;;23.63;53.73;101055.00;5033794;28;20056;-74
2021/08/16 08:22:57;;;;;;;1.30;0.82;;;;;;;23.64;53.76;101041.75;5016083;28;20060;-74
2021/08/16 08:25:22;;;;;;;1.90;1.13;;;;;;;23.66;53.74;101049.63;5016106;28;20041;-74
2021/08/16 08:27:48;;;;;;;1.27;0.80;;;;;;;23.64;53.62;101052.31;5032315;28;20383;-74
2021/08/16 08:30:13;;;;;;;1.38;0.73;;;;;;;23.63;53.56;101055.84;5033540;28;20452;-74
2021/08/16 08:32:50;;;;;;;1.40;1.10;;;;;;;23.64;53.52;101059.34;5016238;28;20107;-74
2021/08/16 08:35:15;;;;;;;4.05;1.77;;;;;;;23.65;53.54;101056.69;5032214;28;20037;-74
2021/08/16 08:37:41;;;;;;;1.40;0.90;;;;;;;23.61;53.23;101052.41;5032636;28;20029;-74
2021/08/16 08:40:07;;;;;;;1.48;0.98;;;;;;;23.68;53.42;101056.63;5033261;28;20037;-74
2021/08/16 08:42:32;;;;;;;2.10;0.98;;;;;;;23.74;53.56;101059.13;5015657;28;20035;-74
2021/08/16 08:44:58;;;;;;;1.20;0.80;;;;;;;23.75;53.29;101057.38;5032287;28;20384;-74
2021/08/16 08:47:24;;;;;;;2.50;1.50;;;;;;;23.80;53.23;101058.97;5032221;28;20029;-74
2021/08/16 08:49:49;;;;;;;1.55;0.88;;;;;;;23.83;53.05;101058.91;5015678;28;20040;-74
2021/08/16 08:52:14;;;;;;;2.08;1.23;;;;;;;23.80;53.02;101048.41;5032250;28;20018;-74
2021/08/16 08:54:41;;;;;;;1.58;1.00;;;;;;;23.87;53.04;101057.06;5015625;28;20039;-74
2021/08/16 08:57:16;;;;;;;3.17;1.50;;;;;;;23.90;53.15;101066.66;5016019;28;20029;-74
2021/08/16 08:59:41;;;;;;;1.50;0.90;;;;;;;23.88;52.86;101068.50;5032317;28;20061;-74
2021/08/16 09:02:07;;;;;;;1.83;0.98;;;;;;;23.87;53.07;101083.47;5015690;28;20065;-74
2021/08/16 09:04:33;;;;;;;2.72;1.00;;;;;;;23.90;53.31;101069.31;4999394;28;20090;-74
2021/08/16 09:06:59;;;;;;;1.55;0.90;;;;;;;23.85;53.08;101075.59;5033309;28;20018;-74
2021/08/16 09:09:25;;;;;;;2.58;1.20;;;;;;;23.86;53.05;101090.53;5015929;28;20029;-74
2021/08/16 09:11:52;;;;;;;2.30;1.30;;;;;;;23.86;52.79;101085.25;5032123;28;20040;-74
2021/08/16 09:14:19;;;;;;;1.95;1.23;;;;;;;23.90;53.18;101090.44;4999376;28;20025;-74
2021/08/16 09:16:46;;;;;;;1.23;0.82;;;;;;;23.87;53.14;101099.31;5032805;28;20111;-74
2021/08/16 09:19:19;;;;;;;1.55;1.00;;;;;;;23.82;53.10;101114.41;5033375;28;20033;-74
2021/08/16 09:21:49;;;;;;;1.75;0.90;;;;;;;23.82;52.96;101124.97;5033082;28;20118;-74
2021/08/16 09:24:23;;;;;;;1.63;1.33;;;;;;;23.80;53.10;101126.75;5031867;28;20037;-74
2021/08/16 09:26:48;;;;;;;1.80;1.17;;;;;;;23.75;53.29;101118.09;5031864;28;20028;-74
2021/08/16 09:29:16;;;;;;;1.65;1.13;;;;;;;23.76;53.18;101111.88;5015348;28;20037;-74
2021/08/16 09:32:03;;;;;;;1.08;0.82;;;;;;;23.79;53.05;101125.03;5033253;28;20442;-74
2021/08/16 09:34:29;;;;;;;1.77;1.17;;;;;;;23.79;53.00;101119.75;5031898;28;20035;-74
2021/08/16 09:36:56;;;;;;;1.98;1.30;;;;;;;23.78;53.24;101125.94;5033096;28;20112;-74
2021/08/16 09:39:22;;;;;;;2.50;1.00;;;;;;;23.79;53.14;101128.53;5015644;28;20064;-75
2021/08/16 09:41:56;;;;;;;1.80;1.15;;;;;;;23.77;53.18;101147.94;5033373;28;20029;-74
2021/08/16 09:44:21;;;;;;;1.92;0.98;;;;;;;23.76;53.31;101149.72;5031579;28;20029;-74
2021/08/16 09:46:58;;;;;;;1.15;0.85;;;;;;;23.70;53.22;101157.78;5033009;28;20029;-73
2021/08/16 09:49:24;;;;;;;1.38;0.98;;;;;;;23.70;53.34;101160.44;5031490;28;20034;-74
2021/08/16 09:52:01;;;;;;;1.40;1.10;;;;;;;23.75;53.11;101165.63;5032465;28;20033;-75
2021/08/16 09:54:26;;;;;;;3.67;1.30;;;;;;;23.74;53.27;101166.53;5018737;28;20079;-75
2021/08/16 09:56:53;;;;;;;1.00;0.63;;;;;;;23.72;53.07;101157.75;5036690;28;20455;-75
2021/08/16 09:59:18;;;;;;;2.03;1.10;;;;;;;23.71;53.05;101146.34;5035235;28;20033;-75
2021/08/16 10:01:44;;;;;;;2.50;1.20;;;;;;;23.74;52.92;101150.69;5035239;28;20384;-74
2021/08/16 10:04:09;;;;;;;2.72;1.52;;;;;;;23.76;52.91;101151.50;5035420;28;20476;-75
2021/08/16 10:06:34;;;;;;;2.15;1.45;;;;;;;23.74;53.09;101164.75;5036198;28;20021;-76
2021/08/16 10:09:00;;;;;;;1.65;1.30;;;;;;;23.73;53.13;101160.38;5036283;28;20033;-75
2021/08/16 10:11:26;;;;;;;1.50;0.85;;;;;;;23.74;52.95;101164.75;5018375;28;20026;-75
2021/08/16 10:13:59;;;;;;;1.40;1.00;;;;;;;23.74;53.32;101182.38;5034844;28;20484;-75
2021/08/16 10:16:26;;;;;;;;;;;;;;;23.72;53.09;101197.38;5036310;28;20073;-74
2021/08/16 10:18:59;;;;;;;1.50;1.13;;;;;;;23.68;53.07;101198.34;5036525;28;20332;-73
2021/08/16 10:21:25;;;;;;;1.63;1.25;;;;;;;23.72;53.27;101198.25;5036137;28;20112;-73
2021/08/16 10:23:53;;;;;;;3.30;1.13;;;;;;;23.69;53.15;101200.06;5036221;28;20017;-74
2021/08/16 10:26:29;;;;;;;1.38;0.82;;;;;;;23.71;53.33;101208.84;5034814;28;20021;-74
2021/08/16 10:29:00;;;;;;;1.52;1.10;;;;;;;23.66;53.10;101203.63;5034531;28;20510;-73
2021/08/16 10:31:34;;;;;;;1.27;0.88;;;;;;;23.70;53.08;101205.31;5035699;28;20057;-74
2021/08/16 10:34:00;;;;;;;1.50;0.90;;;;;;;23.71;53.11;101206.19;5034375;28;20021;-74
2021/08/16 10:36:27;;;;;;;1.33;0.93;;;;;;;23.73;53.22;101207.03;5035819;28;20026;-74
2021/08/16 10:39:00;;;;;;;1.80;1.20;;;;;;;23.71;52.97;101206.19;5034338;28;20025;-74
2021/08/16 10:41:30;;;;;;;2.13;1.00;;;;;;;23.72;53.13;101211.44;5034553;28;20476;-74
2021/08/16 10:43:57;;;;;;;1.83;1.10;;;;;;;23.73;53.01;101207.03;5034363;28;20021;-74
2021/08/16 10:46:24;;;;;;;2.25;1.33;;;;;;;23.71;53.29;101219.41;5034164;28;20030;-74
2021/08/16 10:49:04;;;;;;;1.52;1.00;;;;;;;23.68;53.27;101207.13;5034478;28;20122;-74
2021/08/16 10:51:47;;;;;;;1.15;0.93;;;;;;;23.65;53.21;101220.38;5035615;28;20544;-74
2021/08/16 10:54:27;;;;;;;2.40;1.27;;;;;;;23.67;53.04;101225.63;5037828;28;20061;-73
2021/08/16 10:56:55;;;;;;;1.67;1.07;;;;;;;23.66;53.23;101214.19;5018583;28;20051;-72
2021/08/16 10:59:22;;;;;;;1.87;1.10;;;;;;;23.67;53.01;101213.31;5035286;28;20036;-72
2021/08/16 11:01:48;;;;;;;1.80;1.00;;;;;;;23.71;53.00;101214.13;5034500;28;20061;-72
2021/08/16 11:04:45;;;;;;;1.60;1.15;;;;;;;23.69;52.96;101221.19;5033522;28;20033;-72
2021/08/16 11:07:20;;;;;;;2.05;0.95;;;;;;;23.71;52.96;101219.41;5020794;28;20034;-72
2021/08/16 11:09:55;;;;;;;1.73;1.00;;;;;;;23.70;53.20;101223.81;5033889;28;20113;-72
2021/08/16 11:12:33;;;;;;;1.63;1.00;;;;;;;23.70;52.97;101230.88;5033837;28;20433;-72
2021/08/16 11:14:58;;;;;;;1.75;1.02;;;;;;;23.71;53.17;101241.41;5034904;28;20025;-72
2021/08/16 11:17:26;;;;;;;2.22;1.42;;;;;;;23.72;53.27;101239.63;5033272;28;20056;-74
2021/08/16 11:19:57;;;;;;;2.03;1.15;;;;;;;23.71;53.22;101248.44;5017623;28;20050;-72
2021/08/16 11:22:22;;;;;;;2.10;1.20;;;;;;;23.68;52.74;101251.13;5034782;28;20490;-72